sensor_id;sensor_type;location;lat;lon;timestamp;pressure;altitude;pressure_sealevel;temperature
20848;BMP180;10584;50.854;12.902;2024-01-07T00:04:52;97723.00;;;-1.00
20848;BMP180;10584;50.854;12.902;2024-01-07T00:10:14;97722.00;;;-0.90
20848;BMP180;10584;50.854;12.902;2024-01-07T00:15:35;97731.00;;;-0.90
20848;BMP180;10584;50.854;12.902;2024-01-07T00:20:57;97737.00;;;-1.00
20848;BMP180;10584;50.854;12.902;2024-01-07T00:26:19;97729.00;;;-1.00
20848;BMP180;10584;50.854;12.902;2024-01-07T00:31:40;97738.00;;;-0.90
20848;BMP180;10584;50.854;12.902;2024-01-07T00:37:02;97743.00;;;-1.00
20848;BMP180;10584;50.854;12.902;2024-01-07T00:42:23;97737.00;;;-1.00
20848;BMP180;10584;50.854;12.902;2024-01-07T00:47:45;97740.00;;;-1.00
20848;BMP180;10584;50.854;12.902;2024-01-07T00:53:06;97752.00;;;-0.90
20848;BMP180;10584;50.854;12.902;2024-01-07T00:58:28;97752.00;;;-0.90
20848;BMP180;10584;50.854;12.902;2024-01-07T01:03:50;97753.00;;;-1.20
20848;BMP180;10584;50.854;12.902;2024-01-07T01:09:11;97757.00;;;-1.10
20848;BMP180;10584;50.854;12.902;2024-01-07T01:14:33;97753.00;;;-1.00
20848;BMP180;10584;50.854;12.902;2024-01-07T01:19:55;97777.00;;;-1.20
20848;BMP180;10584;50.854;12.902;2024-01-07T01:25:16;97778.00;;;-1.20
20848;BMP180;10584;50.854;12.902;2024-01-07T01:30:38;97773.00;;;-1.10
20848;BMP180;10584;50.854;12.902;2024-01-07T01:36:03;97783.00;;;-1.50
20848;BMP180;10584;50.854;12.902;2024-01-07T01:41:25;97783.00;;;-1.40
20848;BMP180;10584;50.854;12.902;2024-01-07T01:46:47;97792.00;;;-1.50
20848;BMP180;10584;50.854;12.902;2024-01-07T01:52:09;97793.00;;;-1.30
20848;BMP180;10584;50.854;12.902;2024-01-07T01:57:34;97799.00;;;-1.50
20848;BMP180;10584;50.854;12.902;2024-01-07T02:02:58;97803.00;;;-1.40
20848;BMP180;10584;50.854;12.902;2024-01-07T02:08:22;97813.00;;;-1.60
20848;BMP180;10584;50.854;12.902;2024-01-07T02:13:44;97814.00;;;-1.60
20848;BMP180;10584;50.854;12.902;2024-01-07T02:19:06;97819.00;;;-1.70
20848;BMP180;10584;50.854;12.902;2024-01-07T02:24:28;97824.00;;;-1.70
20848;BMP180;10584;50.854;12.902;2024-01-07T02:29:50;97827.00;;;-1.80
20848;BMP180;10584;50.854;12.902;2024-01-07T02:35:12;97832.00;;;-1.70
20848;BMP180;10584;50.854;12.902;2024-01-07T02:40:33;97845.00;;;-1.70
20848;BMP180;10584;50.854;12.902;2024-01-07T02:45:55;97835.00;;;-1.70
20848;BMP180;10584;50.854;12.902;2024-01-07T02:51:16;97845.00;;;-1.80
20848;BMP180;10584;50.854;12.902;2024-01-07T02:56:38;97852.00;;;-1.70
20848;BMP180;10584;50.854;12.902;2024-01-07T03:01:59;97845.00;;;-1.70
20848;BMP180;10584;50.854;12.902;2024-01-07T03:07:22;97843.00;;;-1.80
20848;BMP180;10584;50.854;12.902;2024-01-07T03:12:44;97844.00;;;-1.70
20848;BMP180;10584;50.854;12.902;2024-01-07T03:18:06;97845.00;;;-1.80
20848;BMP180;10584;50.854;12.902;2024-01-07T03:23:27;97854.00;;;-1.80
20848;BMP180;10584;50.854;12.902;2024-01-07T03:28:49;97849.00;;;-1.80
20848;BMP180;10584;50.854;12.902;2024-01-07T03:34:10;97852.00;;;-2.00
20848;BMP180;10584;50.854;12.902;2024-01-07T03:39:35;97852.00;;;-2.10
20848;BMP180;10584;50.854;12.902;2024-01-07T03:44:57;97863.00;;;-2.00
20848;BMP180;10584;50.854;12.902;2024-01-07T03:50:19;97872.00;;;-2.00
20848;BMP180;10584;50.854;12.902;2024-01-07T03:55:41;97871.00;;;-2.20
20848;BMP180;10584;50.854;12.902;2024-01-07T04:01:02;97871.00;;;-2.10
20848;BMP180;10584;50.854;12.902;2024-01-07T04:06:24;97882.00;;;-2.10
20848;BMP180;10584;50.854;12.902;2024-01-07T04:11:45;97886.00;;;-2.20
20848;BMP180;10584;50.854;12.902;2024-01-07T04:17:07;97882.00;;;-2.30
20848;BMP180;10584;50.854;12.902;2024-01-07T04:22:29;97890.00;;;-2.40
20848;BMP180;10584;50.854;12.902;2024-01-07T04:27:51;97897.00;;;-2.50
20848;BMP180;10584;50.854;12.902;2024-01-07T04:33:12;97899.00;;;-2.50
20848;BMP180;10584;50.854;12.902;2024-01-07T04:38:35;97901.00;;;-2.40
20848;BMP180;10584;50.854;12.902;2024-01-07T04:43:56;97923.00;;;-2.40
20848;BMP180;10584;50.854;12.902;2024-01-07T04:49:18;97917.00;;;-2.30
20848;BMP180;10584;50.854;12.902;2024-01-07T04:54:39;97922.00;;;-2.40
20848;BMP180;10584;50.854;12.902;2024-01-07T05:00:02;97935.00;;;-2.40
20848;BMP180;10584;50.854;12.902;2024-01-07T05:05:24;97936.00;;;-2.40
20848;BMP180;10584;50.854;12.902;2024-01-07T05:10:46;97935.00;;;-2.50
20848;BMP180;10584;50.854;12.902;2024-01-07T05:16:07;97940.00;;;-2.50
20848;BMP180;10584;50.854;12.902;2024-01-07T05:21:29;97935.00;;;-2.60
20848;BMP180;10584;50.854;12.902;2024-01-07T05:26:51;97946.00;;;-2.60
20848;BMP180;10584;50.854;12.902;2024-01-07T05:32:12;97950.00;;;-2.60
20848;BMP180;10584;50.854;12.902;2024-01-07T05:37:34;97956.00;;;-2.70
20848;BMP180;10584;50.854;12.902;2024-01-07T05:42:56;97960.00;;;-2.80
20848;BMP180;10584;50.854;12.902;2024-01-07T05:48:22;97972.00;;;-2.80
20848;BMP180;10584;50.854;12.902;2024-01-07T05:53:44;97969.00;;;-2.80
20848;BMP180;10584;50.854;12.902;2024-01-07T05:59:07;97980.00;;;-2.80
20848;BMP180;10584;50.854;12.902;2024-01-07T06:04:28;97996.00;;;-2.80
20848;BMP180;10584;50.854;12.902;2024-01-07T06:09:50;97992.00;;;-2.90
20848;BMP180;10584;50.854;12.902;2024-01-07T06:15:12;97998.00;;;-2.90
20848;BMP180;10584;50.854;12.902;2024-01-07T06:20:33;97998.00;;;-2.80
20848;BMP180;10584;50.854;12.902;2024-01-07T06:25:55;98014.00;;;-2.70
20848;BMP180;10584;50.854;12.902;2024-01-07T06:31:16;98018.00;;;-2.70
20848;BMP180;10584;50.854;12.902;2024-01-07T06:36:38;98014.00;;;-2.60
20848;BMP180;10584;50.854;12.902;2024-01-07T06:41:59;98014.00;;;-2.70
20848;BMP180;10584;50.854;12.902;2024-01-07T06:47:21;98028.00;;;-2.70
20848;BMP180;10584;50.854;12.902;2024-01-07T06:52:42;98045.00;;;-2.60
20848;BMP180;10584;50.854;12.902;2024-01-07T06:58:04;98049.00;;;-2.90
20848;BMP180;10584;50.854;12.902;2024-01-07T07:03:28;98071.00;;;-2.90
20848;BMP180;10584;50.854;12.902;2024-01-07T07:08:49;98060.00;;;-2.90
20848;BMP180;10584;50.854;12.902;2024-01-07T07:14:14;98054.00;;;-2.90
20848;BMP180;10584;50.854;12.902;2024-01-07T07:19:35;98077.00;;;-2.90
20848;BMP180;10584;50.854;12.902;2024-01-07T07:24:57;98076.00;;;-3.00
20848;BMP180;10584;50.854;12.902;2024-01-07T07:30:22;98095.00;;;-3.00
20848;BMP180;10584;50.854;12.902;2024-01-07T07:35:44;98102.00;;;-3.00
20848;BMP180;10584;50.854;12.902;2024-01-07T07:41:05;98088.00;;;-3.10
20848;BMP180;10584;50.854;12.902;2024-01-07T07:46:27;98111.00;;;-3.10
20848;BMP180;10584;50.854;12.902;2024-01-07T07:51:48;98115.00;;;-3.10
20848;BMP180;10584;50.854;12.902;2024-01-07T07:57:10;98109.00;;;-3.20
20848;BMP180;10584;50.854;12.902;2024-01-07T08:02:31;98124.00;;;-3.20
20848;BMP180;10584;50.854;12.902;2024-01-07T08:07:53;98131.00;;;-3.20
20848;BMP180;10584;50.854;12.902;2024-01-07T08:13:14;98140.00;;;-3.10
20848;BMP180;10584;50.854;12.902;2024-01-07T08:18:36;98150.00;;;-3.20
20848;BMP180;10584;50.854;12.902;2024-01-07T08:23:58;98138.00;;;-3.20
20848;BMP180;10584;50.854;12.902;2024-01-07T08:29:19;98149.00;;;-3.20
20848;BMP180;10584;50.854;12.902;2024-01-07T08:34:41;98159.00;;;-3.10
20848;BMP180;10584;50.854;12.902;2024-01-07T08:40:03;98171.00;;;-3.30
20848;BMP180;10584;50.854;12.902;2024-01-07T08:45:24;98165.00;;;-3.30
20848;BMP180;10584;50.854;12.902;2024-01-07T08:50:46;98178.00;;;-3.30
20848;BMP180;10584;50.854;12.902;2024-01-07T08:56:08;98174.00;;;-3.30
20848;BMP180;10584;50.854;12.902;2024-01-07T09:01:29;98180.00;;;-3.40
20848;BMP180;10584;50.854;12.902;2024-01-07T09:06:51;98184.00;;;-3.40
20848;BMP180;10584;50.854;12.902;2024-01-07T09:12:13;98196.00;;;-3.40
20848;BMP180;10584;50.854;12.902;2024-01-07T09:17:37;98198.00;;;-3.40
20848;BMP180;10584;50.854;12.902;2024-01-07T09:22:59;98208.00;;;-3.30
20848;BMP180;10584;50.854;12.902;2024-01-07T09:28:21;98196.00;;;-3.40
20848;BMP180;10584;50.854;12.902;2024-01-07T09:33:42;98199.00;;;-3.30
20848;BMP180;10584;50.854;12.902;2024-01-07T09:39:04;98202.00;;;-3.30
20848;BMP180;10584;50.854;12.902;2024-01-07T09:44:28;98219.00;;;-3.20
20848;BMP180;10584;50.854;12.902;2024-01-07T09:49:50;98218.00;;;-3.30
20848;BMP180;10584;50.854;12.902;2024-01-07T09:55:37;98217.00;;;-3.20
20848;BMP180;10584;50.854;12.902;2024-01-07T10:00:56;98213.00;;;-3.30
20848;BMP180;10584;50.854;12.902;2024-01-07T10:06:21;98236.00;;;-3.40
20848;BMP180;10584;50.854;12.902;2024-01-07T10:11:43;98227.00;;;-3.50
20848;BMP180;10584;50.854;12.902;2024-01-07T10:17:15;98222.00;;;-3.50
20848;BMP180;10584;50.854;12.902;2024-01-07T10:22:38;98227.00;;;-3.60
20848;BMP180;10584;50.854;12.902;2024-01-07T10:28:00;98229.00;;;-3.60
20848;BMP180;10584;50.854;12.902;2024-01-07T10:33:22;98237.00;;;-3.60
20848;BMP180;10584;50.854;12.902;2024-01-07T10:38:45;98236.00;;;-3.80
20848;BMP180;10584;50.854;12.902;2024-01-07T10:44:07;98249.00;;;-3.60
20848;BMP180;10584;50.854;12.902;2024-01-07T10:49:28;98258.00;;;-3.70
20848;BMP180;10584;50.854;12.902;2024-01-07T10:54:52;98266.00;;;-3.70
20848;BMP180;10584;50.854;12.902;2024-01-07T11:00:15;98257.00;;;-3.70
20848;BMP180;10584;50.854;12.902;2024-01-07T11:05:56;98255.00;;;-3.80
20848;BMP180;10584;50.854;12.902;2024-01-07T11:11:25;98251.00;;;-3.70
20848;BMP180;10584;50.854;12.902;2024-01-07T11:16:47;98249.00;;;-3.90
20848;BMP180;10584;50.854;12.902;2024-01-07T11:22:25;98261.00;;;-3.90
20848;BMP180;10584;50.854;12.902;2024-01-07T11:27:49;98265.00;;;-4.00
20848;BMP180;10584;50.854;12.902;2024-01-07T11:33:12;98261.00;;;-4.00
20848;BMP180;10584;50.854;12.902;2024-01-07T11:38:35;98272.00;;;-4.10
20848;BMP180;10584;50.854;12.902;2024-01-07T11:43:59;98278.00;;;-4.10
20848;BMP180;10584;50.854;12.902;2024-01-07T11:49:27;98273.00;;;-4.10
20848;BMP180;10584;50.854;12.902;2024-01-07T11:54:49;98281.00;;;-4.00
20848;BMP180;10584;50.854;12.902;2024-01-07T12:00:11;98286.00;;;-4.00
20848;BMP180;10584;50.854;12.902;2024-01-07T12:05:33;98288.00;;;-4.00
20848;BMP180;10584;50.854;12.902;2024-01-07T12:10:55;98291.00;;;-4.10
20848;BMP180;10584;50.854;12.902;2024-01-07T12:16:17;98293.00;;;-4.10
20848;BMP180;10584;50.854;12.902;2024-01-07T12:21:38;98302.00;;;-4.10
20848;BMP180;10584;50.854;12.902;2024-01-07T12:27:07;98298.00;;;-4.30
20848;BMP180;10584;50.854;12.902;2024-01-07T12:32:30;98309.00;;;-4.20
20848;BMP180;10584;50.854;12.902;2024-01-07T12:37:53;98319.00;;;-4.20
20848;BMP180;10584;50.854;12.902;2024-01-07T12:43:14;98314.00;;;-4.10
20848;BMP180;10584;50.854;12.902;2024-01-07T12:48:37;98322.00;;;-4.10
20848;BMP180;10584;50.854;12.902;2024-01-07T12:53:59;98336.00;;;-4.10
20848;BMP180;10584;50.854;12.902;2024-01-07T12:59:24;98332.00;;;-4.10
20848;BMP180;10584;50.854;12.902;2024-01-07T13:04:46;98349.00;;;-4.10
20848;BMP180;10584;50.854;12.902;2024-01-07T13:10:08;98348.00;;;-4.20
20848;BMP180;10584;50.854;12.902;2024-01-07T13:15:31;98360.00;;;-4.10
20848;BMP180;10584;50.854;12.902;2024-01-07T13:20:56;98348.00;;;-4.00
20848;BMP180;10584;50.854;12.902;2024-01-07T13:26:17;98353.00;;;-4.20
20848;BMP180;10584;50.854;12.902;2024-01-07T13:31:39;98369.00;;;-4.10
20848;BMP180;10584;50.854;12.902;2024-01-07T13:37:00;98374.00;;;-4.00
20848;BMP180;10584;50.854;12.902;2024-01-07T13:42:22;98375.00;;;-4.00
20848;BMP180;10584;50.854;12.902;2024-01-07T13:47:44;98366.00;;;-4.00
20848;BMP180;10584;50.854;12.902;2024-01-07T13:53:05;98390.00;;;-4.10
20848;BMP180;10584;50.854;12.902;2024-01-07T13:58:26;98393.00;;;-3.90
20848;BMP180;10584;50.854;12.902;2024-01-07T14:03:48;98396.00;;;-3.90
20848;BMP180;10584;50.854;12.902;2024-01-07T14:09:09;98410.00;;;-4.00
20848;BMP180;10584;50.854;12.902;2024-01-07T14:14:31;98405.00;;;-4.00
20848;BMP180;10584;50.854;12.902;2024-01-07T14:19:53;98407.00;;;-4.00
20848;BMP180;10584;50.854;12.902;2024-01-07T14:25:14;98402.00;;;-4.00
20848;BMP180;10584;50.854;12.902;2024-01-07T14:30:36;98402.00;;;-3.90
20848;BMP180;10584;50.854;12.902;2024-01-07T14:35:59;98395.00;;;-3.90
20848;BMP180;10584;50.854;12.902;2024-01-07T14:41:21;98403.00;;;-3.90
20848;BMP180;10584;50.854;12.902;2024-01-07T14:46:42;98394.00;;;-3.90
20848;BMP180;10584;50.854;12.902;2024-01-07T14:52:04;98407.00;;;-4.00
20848;BMP180;10584;50.854;12.902;2024-01-07T14:57:26;98413.00;;;-3.90
20848;BMP180;10584;50.854;12.902;2024-01-07T15:02:47;98421.00;;;-3.90
20848;BMP180;10584;50.854;12.902;2024-01-07T15:08:09;98425.00;;;-3.80
20848;BMP180;10584;50.854;12.902;2024-01-07T15:13:34;98431.00;;;-3.90
20848;BMP180;10584;50.854;12.902;2024-01-07T15:18:56;98430.00;;;-3.90
20848;BMP180;10584;50.854;12.902;2024-01-07T15:24:17;98441.00;;;-3.80
20848;BMP180;10584;50.854;12.902;2024-01-07T15:29:39;98448.00;;;-3.70
20848;BMP180;10584;50.854;12.902;2024-01-07T15:35:00;98445.00;;;-3.60
20848;BMP180;10584;50.854;12.902;2024-01-07T15:40:23;98452.00;;;-3.60
20848;BMP180;10584;50.854;12.902;2024-01-07T15:45:44;98463.00;;;-3.70
20848;BMP180;10584;50.854;12.902;2024-01-07T15:51:06;98463.00;;;-3.60
20848;BMP180;10584;50.854;12.902;2024-01-07T15:56:27;98465.00;;;-3.70
20848;BMP180;10584;50.854;12.902;2024-01-07T16:01:49;98466.00;;;-3.60
20848;BMP180;10584;50.854;12.902;2024-01-07T16:07:11;98474.00;;;-3.70
20848;BMP180;10584;50.854;12.902;2024-01-07T16:12:33;98477.00;;;-3.80
20848;BMP180;10584;50.854;12.902;2024-01-07T16:17:54;98485.00;;;-3.70
20848;BMP180;10584;50.854;12.902;2024-01-07T16:23:16;98491.00;;;-3.70
20848;BMP180;10584;50.854;12.902;2024-01-07T16:28:38;98486.00;;;-3.80
20848;BMP180;10584;50.854;12.902;2024-01-07T16:33:59;98490.00;;;-3.60
20848;BMP180;10584;50.854;12.902;2024-01-07T16:39:24;98484.00;;;-3.70
20848;BMP180;10584;50.854;12.902;2024-01-07T16:44:45;98479.00;;;-3.60
20848;BMP180;10584;50.854;12.902;2024-01-07T16:50:07;98490.00;;;-3.60
20848;BMP180;10584;50.854;12.902;2024-01-07T16:55:32;98487.00;;;-3.60
20848;BMP180;10584;50.854;12.902;2024-01-07T17:00:53;98487.00;;;-3.50
20848;BMP180;10584;50.854;12.902;2024-01-07T17:06:18;98503.00;;;-3.60
20848;BMP180;10584;50.854;12.902;2024-01-07T17:11:41;98507.00;;;-3.60
20848;BMP180;10584;50.854;12.902;2024-01-07T17:17:03;98512.00;;;-3.60
20848;BMP180;10584;50.854;12.902;2024-01-07T17:22:25;98518.00;;;-3.60
20848;BMP180;10584;50.854;12.902;2024-01-07T17:27:46;98526.00;;;-3.70
20848;BMP180;10584;50.854;12.902;2024-01-07T17:33:09;98531.00;;;-3.70
20848;BMP180;10584;50.854;12.902;2024-01-07T17:38:32;98527.00;;;-3.60
20848;BMP180;10584;50.854;12.902;2024-01-07T17:43:54;98521.00;;;-3.70
20848;BMP180;10584;50.854;12.902;2024-01-07T17:49:16;98525.00;;;-3.70
20848;BMP180;10584;50.854;12.902;2024-01-07T17:54:38;98536.00;;;-3.70
20848;BMP180;10584;50.854;12.902;2024-01-07T18:00:03;98548.00;;;-3.60
20848;BMP180;10584;50.854;12.902;2024-01-07T18:05:30;98547.00;;;-3.60
20848;BMP180;10584;50.854;12.902;2024-01-07T18:10:52;98560.00;;;-3.60
20848;BMP180;10584;50.854;12.902;2024-01-07T18:16:13;98552.00;;;-3.50
20848;BMP180;10584;50.854;12.902;2024-01-07T18:21:35;98546.00;;;-3.60
20848;BMP180;10584;50.854;12.902;2024-01-07T18:26:57;98561.00;;;-3.50
20848;BMP180;10584;50.854;12.902;2024-01-07T18:32:19;98559.00;;;-3.40
20848;BMP180;10584;50.854;12.902;2024-01-07T18:37:40;98559.00;;;-3.50
20848;BMP180;10584;50.854;12.902;2024-01-07T18:43:04;98563.00;;;-3.60
20848;BMP180;10584;50.854;12.902;2024-01-07T18:48:26;98567.00;;;-3.70
20848;BMP180;10584;50.854;12.902;2024-01-07T18:53:50;98575.00;;;-3.60
20848;BMP180;10584;50.854;12.902;2024-01-07T18:59:12;98575.00;;;-3.60
20848;BMP180;10584;50.854;12.902;2024-01-07T19:04:38;98573.00;;;-3.60
20848;BMP180;10584;50.854;12.902;2024-01-07T19:10:00;98568.00;;;-3.50
20848;BMP180;10584;50.854;12.902;2024-01-07T19:15:22;98564.00;;;-3.60
20848;BMP180;10584;50.854;12.902;2024-01-07T19:20:46;98575.00;;;-3.50
20848;BMP180;10584;50.854;12.902;2024-01-07T19:26:10;98582.00;;;-3.50
20848;BMP180;10584;50.854;12.902;2024-01-07T19:31:32;98584.00;;;-3.40
20848;BMP180;10584;50.854;12.902;2024-01-07T19:36:54;98591.00;;;-3.50
20848;BMP180;10584;50.854;12.902;2024-01-07T19:42:17;98605.00;;;-3.40
20848;BMP180;10584;50.854;12.902;2024-01-07T19:47:38;98604.00;;;-3.40
20848;BMP180;10584;50.854;12.902;2024-01-07T19:53:00;98605.00;;;-3.40
20848;BMP180;10584;50.854;12.902;2024-01-07T19:58:23;98602.00;;;-3.60
20848;BMP180;10584;50.854;12.902;2024-01-07T20:03:45;98611.00;;;-3.50
20848;BMP180;10584;50.854;12.902;2024-01-07T20:09:07;98614.00;;;-3.60
20848;BMP180;10584;50.854;12.902;2024-01-07T20:14:28;98626.00;;;-3.60
20848;BMP180;10584;50.854;12.902;2024-01-07T20:19:52;98613.00;;;-3.70
20848;BMP180;10584;50.854;12.902;2024-01-07T20:25:14;98625.00;;;-3.70
20848;BMP180;10584;50.854;12.902;2024-01-07T20:30:35;98623.00;;;-3.60
20848;BMP180;10584;50.854;12.902;2024-01-07T20:35:57;98637.00;;;-3.70
20848;BMP180;10584;50.854;12.902;2024-01-07T20:41:19;98647.00;;;-3.60
20848;BMP180;10584;50.854;12.902;2024-01-07T20:46:41;98637.00;;;-3.70
20848;BMP180;10584;50.854;12.902;2024-01-07T20:52:03;98635.00;;;-3.60
20848;BMP180;10584;50.854;12.902;2024-01-07T20:57:25;98637.00;;;-3.70
20848;BMP180;10584;50.854;12.902;2024-01-07T21:02:46;98645.00;;;-3.80
20848;BMP180;10584;50.854;12.902;2024-01-07T21:08:08;98641.00;;;-3.90
20848;BMP180;10584;50.854;12.902;2024-01-07T21:13:30;98657.00;;;-3.80
20848;BMP180;10584;50.854;12.902;2024-01-07T21:18:51;98663.00;;;-3.80
20848;BMP180;10584;50.854;12.902;2024-01-07T21:24:13;98662.00;;;-4.00
20848;BMP180;10584;50.854;12.902;2024-01-07T21:29:35;98653.00;;;-4.00
20848;BMP180;10584;50.854;12.902;2024-01-07T21:34:57;98656.00;;;-3.90
20848;BMP180;10584;50.854;12.902;2024-01-07T21:40:20;98659.00;;;-3.90
20848;BMP180;10584;50.854;12.902;2024-01-07T21:45:41;98662.00;;;-4.00
20848;BMP180;10584;50.854;12.902;2024-01-07T21:51:03;98672.00;;;-4.00
20848;BMP180;10584;50.854;12.902;2024-01-07T21:56:26;98684.00;;;-4.00
20848;BMP180;10584;50.854;12.902;2024-01-07T22:01:48;98670.00;;;-4.10
20848;BMP180;10584;50.854;12.902;2024-01-07T22:07:10;98682.00;;;-4.30
20848;BMP180;10584;50.854;12.902;2024-01-07T22:12:31;98678.00;;;-4.20
20848;BMP180;10584;50.854;12.902;2024-01-07T22:17:53;98672.00;;;-4.30
20848;BMP180;10584;50.854;12.902;2024-01-07T22:23:16;98682.00;;;-4.40
20848;BMP180;10584;50.854;12.902;2024-01-07T22:28:37;98679.00;;;-4.40
20848;BMP180;10584;50.854;12.902;2024-01-07T22:33:59;98690.00;;;-4.50
20848;BMP180;10584;50.854;12.902;2024-01-07T22:39:24;98697.00;;;-4.30
20848;BMP180;10584;50.854;12.902;2024-01-07T22:44:46;98696.00;;;-4.30
20848;BMP180;10584;50.854;12.902;2024-01-07T22:50:08;98694.00;;;-4.40
20848;BMP180;10584;50.854;12.902;2024-01-07T22:55:30;98684.00;;;-4.40
20848;BMP180;10584;50.854;12.902;2024-01-07T23:00:51;98702.00;;;-4.40
20848;BMP180;10584;50.854;12.902;2024-01-07T23:06:13;98703.00;;;-4.30
20848;BMP180;10584;50.854;12.902;2024-01-07T23:11:35;98700.00;;;-4.20
20848;BMP180;10584;50.854;12.902;2024-01-07T23:16:57;98698.00;;;-4.20
20848;BMP180;10584;50.854;12.902;2024-01-07T23:22:19;98701.00;;;-4.20
20848;BMP180;10584;50.854;12.902;2024-01-07T23:27:42;98697.00;;;-4.20
20848;BMP180;10584;50.854;12.902;2024-01-07T23:33:04;98708.00;;;-4.30
20848;BMP180;10584;50.854;12.902;2024-01-07T23:38:26;98714.00;;;-4.30
20848;BMP180;10584;50.854;12.902;2024-01-07T23:43:51;98717.00;;;-4.30
20848;BMP180;10584;50.854;12.902;2024-01-07T23:49:13;98707.00;;;-4.30
20848;BMP180;10584;50.854;12.902;2024-01-07T23:54:34;98708.00;;;-4.30
20848;BMP180;10584;50.854;12.902;2024-01-07T23:59:56;98706.00;;;-4.30
